Time;durP1;ratioP1;P1;durP2;ratioP2;P2;SDS_P1;SDS_P2;PMS_P1;PMS_P2;Temp;Humidity;BMP_temperature;BMP_pressure;BME280_temperature;BME280_humidity;BME280_pressure;Samples;Min_cycle;Max_cycle;Signal;HPM_P1;HPM_P2
2022/07/02 00:01:49;;;;;;;;;;;;;;;-147.11;100.00;61570.13;5021923;28;19932;-54
2022/07/02 00:04:16;;;;;;;;;;;;;;;-147.11;100.00;61570.13;5025517;28;19921;-54
2022/07/02 00:06:42;;;;;;;;;;;;;;;-147.11;100.00;61570.13;5030375;28;20323;-54
2022/07/02 00:09:07;;;;;;;;;;;;;;;-147.11;100.00;61570.13;5026068;28;19918;-54
2022/07/02 00:11:34;;;;;;;;;;;;;;;-147.11;100.00;61570.13;5024006;28;19922;-55
2022/07/02 00:13:59;;;;;;;;;;;;;;;-147.11;100.00;61570.13;5027329;28;19921;-54
2022/07/02 00:16:25;;;;;;;;;;;;;;;-147.11;100.00;61570.13;5024354;28;19921;-54
2022/07/02 00:18:50;;;;;;;;;;;;;;;-147.11;100.00;61570.13;5023213;28;19943;-56
2022/07/02 00:21:16;;;;;;;;;;;;;;;-147.11;100.00;61570.13;5020855;28;19929;-53
2022/07/02 00:23:42;;;;;;;;;;;;;;;-147.11;100.00;61570.13;5025560;28;19921;-55
2022/07/02 00:26:09;;;;;;;;;;;;;;;-147.11;100.00;61570.13;5024200;28;19980;-55
2022/07/02 00:28:37;;;;;;;;;;;;;;;-147.11;100.00;61570.13;5024834;28;19964;-54
2022/07/02 00:31:02;;;;;;;;;;;;;;;-147.11;100.00;61570.13;5021993;28;19932;-55
2022/07/02 00:33:29;;;;;;;;;;;;;;;-147.11;100.00;61570.13;5022820;28;19921;-55
2022/07/02 00:35:56;;;;;;;;;;;;;;;-147.11;100.00;61570.13;5020540;28;19940;-55
2022/07/02 00:38:21;;;;;;;;;;;;;;;-147.11;100.00;61570.13;5023770;28;19975;-54
2022/07/02 00:40:47;;;;;;;;;;;;;;;-147.11;100.00;61570.13;5021580;28;19952;-54
2022/07/02 00:43:13;;;;;;;;;;;;;;;-147.11;100.00;61570.13;5028016;28;19971;-55
2022/07/02 00:45:39;;;;;;;;;;;;;;;-147.11;100.00;61570.13;5021012;28;19925;-54
2022/07/02 00:48:04;;;;;;;;;;;;;;;-147.11;100.00;61570.13;5023555;28;19929;-55
2022/07/02 00:50:30;;;;;;;;;;;;;;;-147.11;100.00;61570.13;5026368;28;19921;-55
2022/07/02 00:52:55;;;;;;;;;;;;;;;-147.11;100.00;61570.13;5027902;28;20313;-55
2022/07/02 00:55:20;;;;;;;;;;;;;;;-147.11;100.00;61570.13;5027537;28;19964;-53
2022/07/02 00:57:46;;;;;;;;;;;;;;;-147.11;100.00;61570.13;5020923;28;20888;-54
2022/07/02 01:00:13;;;;;;;;;;;;;;;-147.11;100.00;61570.13;5023278;28;20012;-55
2022/07/02 01:02:42;;;;;;;;;;;;;;;-147.11;100.00;61570.13;5026042;28;19921;-54
2022/07/02 01:05:07;;;;;;;;;;;;;;;-147.11;100.00;61570.13;5023219;28;19927;-55
2022/07/02 01:07:33;;;;;;;;;;;;;;;-147.11;100.00;61570.13;5025671;28;20012;-54
2022/07/02 01:10:17;;;;;;;;;;;;;;;-147.11;100.00;61570.13;5027396;28;20517;-54
2022/07/02 01:12:47;;;;;;;;;;;;;;;-147.11;100.00;61570.13;5024187;28;19921;-54
2022/07/02 01:15:13;;;;;;;;;;;;;;;-147.11;100.00;61570.13;5024854;28;20296;-55
2022/07/02 01:17:39;;;;;;;;;;;;;;;-147.11;100.00;61570.13;5019798;28;20385;-55
2022/07/02 01:20:04;;;;;;;;;;;;;;;-147.11;100.00;61570.13;5025006;28;19932;-53
2022/07/02 01:22:40;;;;;;;;;;;;;;;-147.11;100.00;61570.13;5029558;28;19982;-55
2022/07/02 01:25:06;;;;;;;;;;;;;;;-147.11;100.00;61570.13;5020051;28;20007;-55
2022/07/02 01:27:32;;;;;;;;;;;;;;;-147.11;100.00;61570.13;5018233;28;19962;-53
2022/07/02 01:29:57;;;;;;;;;;;;;;;-147.11;100.00;61570.13;5021416;28;19933;-54
2022/07/02 01:32:22;;;;;;;;;;;;;;;-147.11;100.00;61570.13;5022766;28;19929;-54
2022/07/02 01:34:49;;;;;;;;;;;;;;;-147.11;100.00;61570.13;5022686;28;19940;-55
2022/07/02 01:37:16;;;;;;;;;;;;;;;-147.11;100.00;61570.13;5025831;28;19936;-55
2022/07/02 01:39:43;;;;;;;;;;;;;;;-147.11;100.00;61570.13;5026935;28;19921;-55
2022/07/02 01:42:08;;;;;;;;;;;;;;;-147.11;100.00;61570.13;5025373;28;20391;-54
2022/07/02 01:44:34;;;;;;;;;;;;;;;-147.11;100.00;61570.13;5029199;28;19928;-54
2022/07/02 01:47:01;;;;;;;;;;;;;;;-147.11;100.00;61570.13;5027010;28;19921;-54
2022/07/02 01:49:26;;;;;;;;;;;;;;;-147.11;100.00;61570.13;5028398;28;20415;-54
2022/07/02 01:51:51;;;;;;;;;;;;;;;-147.11;100.00;61570.13;5026810;28;20416;-54
2022/07/02 01:54:17;;;;;;;;;;;;;;;-147.11;100.00;61570.13;5023004;28;19925;-54
2022/07/02 01:56:42;;;;;;;;;;;;;;;-147.11;100.00;61570.13;5026332;28;19949;-54
2022/07/02 01:59:07;;;;;;;;;;;;;;;-147.11;100.00;61570.13;5030715;28;20020;-56
2022/07/02 02:01:33;;;;;;;;;;;;;;;-147.11;100.00;61570.13;5012005;28;20396;-55
2022/07/02 02:03:59;;;;;;;;;;;;;;;-147.11;100.00;61570.13;5025346;28;19928;-54
2022/07/02 02:06:24;;;;;;;;;;;;;;;-147.11;100.00;61570.13;5027504;28;19927;-55
2022/07/02 02:08:49;;;;;;;;;;;;;;;-147.11;100.00;61570.13;5020305;28;20288;-55
2022/07/02 02:11:15;;;;;;;;;;;;;;;-147.11;100.00;61570.13;5014354;28;20722;-57
2022/07/02 02:13:41;;;;;;;;;;;;;;;-147.11;100.00;61570.13;5018607;28;19917;-55
2022/07/02 02:16:06;;;;;;;;;;;;;;;-147.11;100.00;61570.13;5015944;28;19925;-55
2022/07/02 02:18:31;;;;;;;;;;;;;;;-147.11;100.00;61570.13;5022936;28;19948;-57
2022/07/02 02:20:57;;;;;;;;;;;;;;;-147.11;100.00;61570.13;5025457;28;19928;-55
2022/07/02 02:23:22;;;;;;;;;;;;;;;-147.11;100.00;61570.13;5026518;28;19929;-55
2022/07/02 02:25:47;;;;;;;;;;;;;;;-147.11;100.00;61570.13;5023264;28;19929;-55
2022/07/02 02:28:13;;;;;;;;;;;;;;;-147.11;100.00;61570.13;5032695;28;19953;-56
2022/07/02 02:30:38;;;;;;;;;;;;;;;-147.11;100.00;61570.13;5024760;28;19929;-56
2022/07/02 02:33:03;;;;;;;;;;;;;;;-147.11;100.00;61570.13;5029470;28;20319;-55
2022/07/02 02:35:29;;;;;;;;;;;;;;;-147.11;100.00;61570.13;5017175;28;19921;-56
2022/07/02 02:37:54;;;;;;;;;;;;;;;-147.11;100.00;61570.13;5028546;28;20004;-55
2022/07/02 02:40:19;;;;;;;;;;;;;;;-147.11;100.00;61570.13;5028228;28;19921;-55
2022/07/02 02:42:44;;;;;;;;;;;;;;;-147.11;100.00;61570.13;5026359;28;19959;-55
2022/07/02 02:45:10;;;;;;;;;;;;;;;-147.11;100.00;61570.13;5008805;28;19924;-54
2022/07/02 02:47:35;;;;;;;;;;;;;;;-147.11;100.00;61570.13;5028978;28;20006;-55
2022/07/02 02:50:02;;;;;;;;;;;;;;;-147.11;100.00;61570.13;5024284;28;20060;-55
2022/07/02 02:52:27;;;;;;;;;;;;;;;-147.11;100.00;61570.13;5016557;28;19925;-55
2022/07/02 02:54:52;;;;;;;;;;;;;;;-147.11;100.00;61570.13;5024623;28;19925;-55
2022/07/02 02:57:17;;;;;;;;;;;;;;;-147.11;100.00;61570.13;5023955;28;19929;-55
2022/07/02 02:59:43;;;;;;;;;;;;;;;-147.11;100.00;61570.13;5025743;28;19921;-57
2022/07/02 03:02:08;;;;;;;;;;;;;;;-147.11;100.00;61570.13;5024124;28;19932;-55
2022/07/02 03:04:33;;;;;;;;;;;;;;;-147.11;100.00;61570.13;5027208;28;19921;-56
2022/07/02 03:06:59;;;;;;;;;;;;;;;-147.11;100.00;61570.13;5017209;28;19929;-57
2022/07/02 03:09:24;;;;;;;;;;;;;;;-147.11;100.00;61570.13;5025110;28;19921;-54
2022/07/02 03:11:50;;;;;;;;;;;;;;;-147.11;100.00;61570.13;5020824;28;19927;-55
2022/07/02 03:14:16;;;;;;;;;;;;;;;-147.11;100.00;61570.13;5023343;28;19929;-55
2022/07/02 03:16:42;;;;;;;;;;;;;;;-147.11;100.00;61570.13;5019086;28;20300;-55
2022/07/02 03:19:07;;;;;;;;;;;;;;;-147.11;100.00;61570.13;5025440;28;19943;-55
2022/07/02 03:21:32;;;;;;;;;;;;;;;-147.11;100.00;61570.13;5029344;28;19929;-55
2022/07/02 03:23:57;;;;;;;;;;;;;;;-147.11;100.00;61570.13;5025346;28;19925;-54
2022/07/02 03:26:23;;;;;;;;;;;;;;;-147.11;100.00;61570.13;5022767;28;20427;-55
2022/07/02 03:28:48;;;;;;;;;;;;;;;-147.11;100.00;61570.13;5027095;28;20312;-55
2022/07/02 03:31:13;;;;;;;;;;;;;;;-147.11;100.00;61570.13;5018879;28;19929;-55
2022/07/02 03:33:39;;;;;;;;;;;;;;;-147.11;100.00;61570.13;5008257;28;19930;-55
2022/07/02 03:36:04;;;;;;;;;;;;;;;-147.11;100.00;61570.13;5009774;28;19953;-56
2022/07/02 03:38:30;;;;;;;;;;;;;;;-147.11;100.00;61570.13;5024551;28;20331;-55
2022/07/02 03:40:55;;;;;;;;;;;;;;;-147.11;100.00;61570.13;5021791;28;20017;-55
2022/07/02 03:43:20;;;;;;;;;;;;;;;-147.11;100.00;61570.13;5022139;28;19968;-55
2022/07/02 03:45:45;;;;;;;;;;;;;;;-147.11;100.00;61570.13;5025526;28;19929;-56
2022/07/02 03:48:11;;;;;;;;;;;;;;;-147.11;100.00;61570.13;5027488;28;20496;-56
2022/07/02 03:50:38;;;;;;;;;;;;;;;-147.11;100.00;61570.13;5023889;28;19967;-55
2022/07/02 03:53:04;;;;;;;;;;;;;;;-147.11;100.00;61570.13;5020983;28;19929;-55
2022/07/02 03:55:29;;;;;;;;;;;;;;;-147.11;100.00;61570.13;5024421;28;19936;-55
2022/07/02 03:57:54;;;;;;;;;;;;;;;-147.11;100.00;61570.13;5029337;28;19925;-56
2022/07/02 04:00:20;;;;;;;;;;;;;;;-147.11;100.00;61570.13;5019803;28;19925;-55
2022/07/02 04:02:45;;;;;;;;;;;;;;;-147.11;100.00;61570.13;5019964;28;19952;-56
2022/07/02 04:05:10;;;;;;;;;;;;;;;-147.11;100.00;61570.13;5026490;28;19922;-55
2022/07/02 04:07:36;;;;;;;;;;;;;;;-147.11;100.00;61570.13;5023911;28;19927;-55
2022/07/02 04:10:02;;;;;;;;;;;;;;;-147.11;100.00;61570.13;5021502;28;19925;-55
2022/07/02 04:12:27;;;;;;;;;;;;;;;-147.11;100.00;61570.13;5025710;28;19974;-55
2022/07/02 04:14:52;;;;;;;;;;;;;;;-147.11;100.00;61570.13;5023926;28;19943;-55
2022/07/02 04:17:17;;;;;;;;;;;;;;;-147.11;100.00;61570.13;5029017;28;19964;-54
2022/07/02 04:19:43;;;;;;;;;;;;;;;-147.11;100.00;61570.13;5023347;28;20288;-55
2022/07/02 04:22:08;;;;;;;;;;;;;;;-147.11;100.00;61570.13;5024541;28;20363;-54
2022/07/02 04:24:33;;;;;;;;;;;;;;;-147.11;100.00;61570.13;5027614;28;19921;-55
2022/07/02 04:26:59;;;;;;;;;;;;;;;-147.11;100.00;61570.13;5024781;28;19929;-56
2022/07/02 04:29:24;;;;;;;;;;;;;;;-147.11;100.00;61570.13;5010683;28;19917;-53
2022/07/02 04:31:49;;;;;;;;;;;;;;;-147.11;100.00;61570.13;5024158;28;19963;-56
2022/07/02 04:34:14;;;;;;;;;;;;;;;-147.11;100.00;61570.13;5024409;28;19929;-54
2022/07/02 04:36:40;;;;;;;;;;;;;;;-147.11;100.00;61570.13;5029199;28;19917;-55
2022/07/02 04:39:06;;;;;;;;;;;;;;;-147.11;100.00;61570.13;5020829;28;19936;-57
2022/07/02 04:41:32;;;;;;;;;;;;;;;-147.11;100.00;61570.13;5024246;28;19921;-54
2022/07/02 04:43:57;;;;;;;;;;;;;;;-147.11;100.00;61570.13;5021484;28;20012;-55
2022/07/02 04:46:23;;;;;;;;;;;;;;;-147.11;100.00;61570.13;5023204;28;19917;-55
2022/07/02 04:48:48;;;;;;;;;;;;;;;-147.11;100.00;61570.13;5029916;28;19921;-56
2022/07/02 04:51:14;;;;;;;;;;;;;;;-147.11;100.00;61570.13;5022383;28;20011;-54
2022/07/02 04:53:39;;;;;;;;;;;;;;;-147.11;100.00;61570.13;5021633;28;19925;-54
2022/07/02 04:56:04;;;;;;;;;;;;;;;-147.11;100.00;61570.13;5018896;28;20768;-55
2022/07/02 04:58:29;;;;;;;;;;;;;;;-147.11;100.00;61570.13;5024178;28;19921;-56
2022/07/02 05:00:55;;;;;;;;;;;;;;;-147.11;100.00;61570.13;5020139;28;19929;-55
2022/07/02 05:03:20;;;;;;;;;;;;;;;-147.11;100.00;61570.13;5026406;28;19936;-55
2022/07/02 05:05:46;;;;;;;;;;;;;;;-147.11;100.00;61570.13;5025105;28;20410;-54
2022/07/02 05:08:11;;;;;;;;;;;;;;;-147.11;100.00;61570.13;5028810;28;19940;-55
2022/07/02 05:10:36;;;;;;;;;;;;;;;-147.11;100.00;61570.13;5021732;28;19948;-54
2022/07/02 05:13:04;;;;;;;;;;;;;;;-147.11;100.00;61570.13;5023683;28;20347;-54
2022/07/02 05:15:29;;;;;;;;;;;;;;;-147.11;100.00;61570.13;5023400;28;20416;-55
2022/07/02 05:17:54;;;;;;;;;;;;;;;-147.11;100.00;61570.13;5022033;28;19968;-54
2022/07/02 05:20:20;;;;;;;;;;;;;;;-147.11;100.00;61570.13;5025882;28;19956;-54
2022/07/02 05:22:45;;;;;;;;;;;;;;;-147.11;100.00;61570.13;5027173;28;19967;-56
2022/07/02 05:25:10;;;;;;;;;;;;;;;-147.11;100.00;61570.13;5024364;28;19936;-54
2022/07/02 05:27:35;;;;;;;;;;;;;;;-147.11;100.00;61570.13;5023942;28;20008;-56
2022/07/02 05:30:01;;;;;;;;;;;;;;;-147.11;100.00;61570.13;5017776;28;19921;-55
2022/07/02 05:32:27;;;;;;;;;;;;;;;-147.11;100.00;61570.13;5023024;28;20367;-55
2022/07/02 05:34:52;;;;;;;;;;;;;;;-147.11;100.00;61570.13;5025292;28;20388;-54
2022/07/02 05:37:17;;;;;;;;;;;;;;;-147.11;100.00;61570.13;5015464;28;20009;-56
2022/07/02 05:39:42;;;;;;;;;;;;;;;-147.11;100.00;61570.13;5021324;28;19964;-55
2022/07/02 05:42:08;;;;;;;;;;;;;;;-147.11;100.00;61570.13;5026248;28;19953;-54
2022/07/02 05:44:33;;;;;;;;;;;;;;;-147.11;100.00;61570.13;5022596;28;20004;-54
2022/07/02 05:46:59;;;;;;;;;;;;;;;-147.11;100.00;61570.13;5016133;28;20438;-54
2022/07/02 05:49:24;;;;;;;;;;;;;;;-147.11;100.00;61570.13;5020749;28;19917;-53
2022/07/02 05:51:49;;;;;;;;;;;;;;;-147.11;100.00;61570.13;5013975;28;20281;-53
2022/07/02 05:54:15;;;;;;;;;;;;;;;-147.11;100.00;61570.13;5025304;28;19921;-55
2022/07/02 05:56:40;;;;;;;;;;;;;;;-147.11;100.00;61570.13;5017289;28;19921;-56
2022/07/02 05:59:05;;;;;;;;;;;;;;;-147.11;100.00;61570.13;5020458;28;20015;-55
2022/07/02 06:01:31;;;;;;;;;;;;;;;-147.11;100.00;61570.13;5018480;28;19924;-56
2022/07/02 06:03:56;;;;;;;;;;;;;;;-147.11;100.00;61570.13;5025697;28;19923;-55
2022/07/02 06:09:05;;;;;;;;;;;;;;;-147.11;100.00;61570.13;5023844;28;19944;-54
2022/07/02 06:11:31;;;;;;;;;;;;;;;-147.11;100.00;61570.13;5020403;28;19921;-55
2022/07/02 06:13:56;;;;;;;;;;;;;;;-147.11;100.00;61570.13;5025654;28;20430;-55
2022/07/02 06:16:21;;;;;;;;;;;;;;;-147.11;100.00;61570.13;5023548;28;19980;-56
2022/07/02 06:18:46;;;;;;;;;;;;;;;-147.11;100.00;61570.13;5021736;28;20335;-55
2022/07/02 06:21:12;;;;;;;;;;;;;;;-147.11;100.00;61570.13;5022507;28;20292;-55
2022/07/02 06:23:37;;;;;;;;;;;;;;;-147.11;100.00;61570.13;5023354;28;20341;-54
2022/07/02 06:26:02;;;;;;;;;;;;;;;-147.11;100.00;61570.13;5026526;28;19921;-54
2022/07/02 06:28:28;;;;;;;;;;;;;;;-147.11;100.00;61570.13;5024741;28;19921;-55
2022/07/02 06:30:53;;;;;;;;;;;;;;;-147.11;100.00;61570.13;5018170;28;19925;-56
2022/07/02 06:33:18;;;;;;;;;;;;;;;-147.11;100.00;61570.13;5031874;28;19967;-55
2022/07/02 06:35:44;;;;;;;;;;;;;;;-147.11;100.00;61570.13;5031975;28;19924;-55
2022/07/02 06:38:09;;;;;;;;;;;;;;;-147.11;100.00;61570.13;5031683;28;19937;-55
2022/07/02 06:40:34;;;;;;;;;;;;;;;-147.11;100.00;61570.13;5026697;28;19917;-55
2022/07/02 06:43:00;;;;;;;;;;;;;;;-147.11;100.00;61570.13;5032299;28;20380;-55
2022/07/02 06:45:25;;;;;;;;;;;;;;;-147.11;100.00;61570.13;5028421;28;20008;-55
2022/07/02 06:47:50;;;;;;;;;;;;;;;-147.11;100.00;61570.13;5027890;28;19921;-54
2022/07/02 06:50:18;;;;;;;;;;;;;;;-147.11;100.00;61570.13;5027828;28;19928;-55
2022/07/02 06:52:45;;;;;;;;;;;;;;;-147.11;100.00;61570.13;5022326;28;20655;-55
2022/07/02 06:55:11;;;;;;;;;;;;;;;-147.11;100.00;61570.13;5023450;28;19931;-55
2022/07/02 06:57:36;;;;;;;;;;;;;;;-147.11;100.00;61570.13;5009371;28;19922;-54
2022/07/02 07:00:02;;;;;;;;;;;;;;;-147.11;100.00;61570.13;5032831;28;19953;-55
2022/07/02 07:02:27;;;;;;;;;;;;;;;-147.11;100.00;61570.13;5034915;28;19921;-55
2022/07/02 07:04:53;;;;;;;;;;;;;;;-147.11;100.00;61570.13;5029133;28;20051;-53
2022/07/02 07:07:19;;;;;;;;;;;;;;;-147.11;100.00;61570.13;5032135;28;19975;-57
2022/07/02 07:09:44;;;;;;;;;;;;;;;-147.11;100.00;61570.13;5025184;28;19932;-54
2022/07/02 07:12:10;;;;;;;;;;;;;;;-147.11;100.00;61570.13;5025546;28;19920;-58
2022/07/02 07:14:36;;;;;;;;;;;;;;;-147.11;100.00;61570.13;5022877;28;19927;-55
2022/07/02 07:17:02;;;;;;;;;;;;;;;-147.11;100.00;61570.13;5026145;28;19935;-55
2022/07/02 07:19:27;;;;;;;;;;;;;;;-147.11;100.00;61570.13;5028611;28;19917;-56
2022/07/02 07:21:52;;;;;;;;;;;;;;;-147.11;100.00;61570.13;5029651;28;20292;-56
2022/07/02 07:24:18;;;;;;;;;;;;;;;-147.11;100.00;61570.13;5032292;28;19913;-59
2022/07/02 07:26:43;;;;;;;;;;;;;;;-147.11;100.00;61570.13;5034942;28;19932;-56
2022/07/02 07:29:09;;;;;;;;;;;;;;;-147.11;100.00;61570.13;5035417;28;19921;-55
2022/07/02 07:31:35;;;;;;;;;;;;;;;-147.11;100.00;61570.13;5033638;28;19922;-55
2022/07/02 07:34:01;;;;;;;;;;;;;;;-147.11;100.00;61570.13;5029934;28;20059;-54
2022/07/02 07:36:29;;;;;;;;;;;;;;;-147.11;100.00;61570.13;5031470;28;19917;-54
2022/07/02 07:38:54;;;;;;;;;;;;;;;-147.11;100.00;61570.13;5011613;28;19936;-54
2022/07/02 07:41:20;;;;;;;;;;;;;;;-147.11;100.00;61570.13;5002770;28;19921;-55
2022/07/02 07:43:46;;;;;;;;;;;;;;;-147.11;100.00;61570.13;5012532;28;20440;-54
2022/07/02 07:46:11;;;;;;;;;;;;;;;-147.11;100.00;61570.13;5011374;28;19936;-56
2022/07/02 07:48:37;;;;;;;;;;;;;;;-147.11;100.00;61570.13;5013190;28;20010;-57
2022/07/02 07:51:02;;;;;;;;;;;;;;;-147.11;100.00;61570.13;5012759;28;19925;-55
2022/07/02 07:53:28;;;;;;;;;;;;;;;-147.11;100.00;61570.13;5013387;28;19932;-54
2022/07/02 07:55:53;;;;;;;;;;;;;;;-147.11;100.00;61570.13;5005940;28;19917;-54
2022/07/02 07:58:19;;;;;;;;;;;;;;;-147.11;100.00;61570.13;5015658;28;19929;-54
2022/07/02 08:00:45;;;;;;;;;;;;;;;-147.11;100.00;61570.13;5018357;28;19917;-53
2022/07/02 08:03:10;;;;;;;;;;;;;;;-147.11;100.00;61570.13;5019799;28;20014;-55
2022/07/02 08:05:36;;;;;;;;;;;;;;;-147.11;100.00;61570.13;5022307;28;19925;-54
2022/07/02 08:08:01;;;;;;;;;;;;;;;-147.11;100.00;61570.13;5014106;28;20778;-54
2022/07/02 08:10:26;;;;;;;;;;;;;;;-147.11;100.00;61570.13;5014742;28;20038;-55
2022/07/02 08:12:52;;;;;;;;;;;;;;;-147.11;100.00;61570.13;5018135;28;19925;-54
2022/07/02 08:15:17;;;;;;;;;;;;;;;-147.11;100.00;61570.13;4999263;28;20024;-55
2022/07/02 08:17:42;;;;;;;;;;;;;;;-147.11;100.00;61570.13;5005378;28;19936;-55
2022/07/02 08:20:08;;;;;;;;;;;;;;;-147.11;100.00;61570.13;5012851;28;20066;-54
2022/07/02 08:22:34;;;;;;;;;;;;;;;-147.11;100.00;61570.13;5008265;28;19937;-56
2022/07/02 08:24:59;;;;;;;;;;;;;;;-147.11;100.00;61570.13;5020081;28;19921;-55
2022/07/02 08:27:25;;;;;;;;;;;;;;;-147.11;100.00;61570.13;5018897;28;19925;-54
2022/07/02 08:29:51;;;;;;;;;;;;;;;-147.11;100.00;61570.13;5009274;28;20546;-54
2022/07/02 08:32:17;;;;;;;;;;;;;;;-147.11;100.00;61570.13;4993588;28;19965;-55
2022/07/02 08:34:42;;;;;;;;;;;;;;;-147.11;100.00;61570.13;5018462;28;20023;-53
2022/07/02 08:37:08;;;;;;;;;;;;;;;-147.11;100.00;61570.13;5011585;28;19933;-56
2022/07/02 08:39:33;;;;;;;;;;;;;;;-147.11;100.00;61570.13;5001653;28;20011;-55
2022/07/02 08:41:59;;;;;;;;;;;;;;;-147.11;100.00;61570.13;5004328;28;19936;-53
2022/07/02 08:44:25;;;;;;;;;;;;;;;-147.11;100.00;61570.13;5000230;28;19921;-55
2022/07/02 08:46:50;;;;;;;;;;;;;;;-147.11;100.00;61570.13;5006233;28;20289;-56
2022/07/02 08:49:19;;;;;;;;;;;;;;;-147.11;100.00;61570.13;5011381;28;20292;-57
2022/07/02 08:52:09;;;;;;;;;;;;;;;-147.11;100.00;61570.13;5016249;28;20406;-55
2022/07/02 08:54:35;;;;;;;;;;;;;;;-147.11;100.00;61570.13;5015824;28;19925;-54
2022/07/02 08:57:01;;;;;;;;;;;;;;;-147.11;100.00;61570.13;5014948;28;19933;-53
2022/07/02 08:59:29;;;;;;;;;;;;;;;-147.11;100.00;61570.13;5006415;28;19929;-53
2022/07/02 09:01:55;;;;;;;;;;;;;;;-147.11;100.00;61570.13;5016541;28;19921;-54
2022/07/02 09:04:21;;;;;;;;;;;;;;;-147.11;100.00;61570.13;5025189;28;19932;-53
2022/07/02 09:06:47;;;;;;;;;;;;;;;-147.11;100.00;61570.13;5010372;28;20062;-54
2022/07/02 09:09:13;;;;;;;;;;;;;;;-147.11;100.00;61570.13;5018999;28;19928;-53
2022/07/02 09:11:38;;;;;;;;;;;;;;;-147.11;100.00;61570.13;5012986;28;20356;-55
2022/07/02 09:14:04;;;;;;;;;;;;;;;-147.11;100.00;61570.13;5020400;28;19921;-56
2022/07/02 09:16:30;;;;;;;;;;;;;;;-147.11;100.00;61570.13;5011040;28;20047;-54
2022/07/02 09:18:55;;;;;;;;;;;;;;;-147.11;100.00;61570.13;5008536;28;19921;-54
2022/07/02 09:21:21;;;;;;;;;;;;;;;-147.11;100.00;61570.13;5012383;28;19964;-55
2022/07/02 09:23:47;;;;;;;;;;;;;;;-147.11;100.00;61570.13;5016405;28;20347;-53
2022/07/02 09:26:19;;;;;;;;;;;;;;;-147.11;100.00;61570.13;5013937;28;20315;-54
2022/07/02 09:28:54;;;;;;;;;;;;;;;-147.11;100.00;61570.13;5013847;28;19940;-55
2022/07/02 09:31:20;;;;;;;;;;;;;;;-147.11;100.00;61570.13;5010318;28;19929;-54
2022/07/02 09:33:45;;;;;;;;;;;;;;;-147.11;100.00;61570.13;5021961;28;19974;-55
2022/07/02 09:36:11;;;;;;;;;;;;;;;-147.11;100.00;61570.13;5019679;28;19929;-57
2022/07/02 09:38:44;;;;;;;;;;;;;;;-147.11;100.00;61570.13;5012060;28;19926;-56
2022/07/02 09:41:13;;;;;;;;;;;;;;;-147.11;100.00;61570.13;5019370;28;19925;-53
2022/07/02 09:43:38;;;;;;;;;;;;;;;-147.11;100.00;61570.13;5019295;28;19925;-53
2022/07/02 09:46:13;;;;;;;;;;;;;;;-147.11;100.00;61570.13;5019559;28;19928;-54
2022/07/02 09:48:39;;;;;;;;;;;;;;;-147.11;100.00;61570.13;5021473;28;20336;-55
2022/07/02 09:51:04;;;;;;;;;;;;;;;-147.11;100.00;61570.13;5019596;28;19930;-54
2022/07/02 09:53:30;;;;;;;;;;;;;;;-147.11;100.00;61570.13;5017102;28;19930;-54
2022/07/02 09:55:55;;;;;;;;;;;;;;;-147.11;100.00;61570.13;5017586;28;19953;-53
2022/07/02 09:58:27;;;;;;;;;;;;;;;-147.11;100.00;61570.13;5018892;28;19928;-55
2022/07/02 10:00:53;;;;;;;;;;;;;;;-147.11;100.00;61570.13;5018995;28;19929;-55
2022/07/02 10:03:19;;;;;;;;;;;;;;;-147.11;100.00;61570.13;5020115;28;19932;-56
2022/07/02 10:05:54;;;;;;;;;;;;;;;-147.11;100.00;61570.13;5024505;28;19928;-55
2022/07/02 10:08:19;;;;;;;;;;;;;;;-147.11;100.00;61570.13;5011262;28;20043;-55
2022/07/02 10:10:45;;;;;;;;;;;;;;;-147.11;100.00;61570.13;5007242;28;20008;-56
2022/07/02 10:13:11;;;;;;;;;;;;;;;-147.11;100.00;61570.13;5023490;28;19921;-54
2022/07/02 10:15:39;;;;;;;;;;;;;;;-147.11;100.00;61570.13;5028881;28;19964;-56
2022/07/02 10:18:05;;;;;;;;;;;;;;;-147.11;100.00;61570.13;5028281;28;19976;-55
2022/07/02 10:20:31;;;;;;;;;;;;;;;-147.11;100.00;61570.13;5017908;28;19925;-56
2022/07/02 10:22:58;;;;;;;;;;;;;;;-147.11;100.00;61570.13;5026574;28;19933;-56
2022/07/02 10:25:24;;;;;;;;;;;;;;;-147.11;100.00;61570.13;5026015;28;19987;-56
2022/07/02 10:27:51;;;;;;;;;;;;;;;-147.11;100.00;61570.13;5024887;28;19925;-54
2022/07/02 10:30:26;;;;;;;;;;;;;;;-147.11;100.00;61570.13;5025931;28;20324;-55
2022/07/02 10:32:54;;;;;;;;;;;;;;;-147.11;100.00;61570.13;5026653;28;19986;-56
2022/07/02 10:35:20;;;;;;;;;;;;;;;-147.11;100.00;61570.13;5030396;28;20589;-56
2022/07/02 10:37:46;;;;;;;;;;;;;;;-147.11;100.00;61570.13;5029144;28;19976;-55
2022/07/02 10:40:16;;;;;;;;;;;;;;;-147.11;100.00;61570.13;5029926;28;20054;-55
2022/07/02 10:42:41;;;;;;;;;;;;;;;-147.11;100.00;61570.13;5030873;28;20007;-55
2022/07/02 10:45:16;;;;;;;;;;;;;;;-147.11;100.00;61570.13;5030300;28;20028;-56
2022/07/02 10:48:00;;;;;;;;;;;;;;;-147.11;100.00;61570.13;5032188;28;19928;-56
2022/07/02 10:50:45;;;;;;;;;;;;;;;-147.11;100.00;61570.13;5025967;28;19921;-55
2022/07/02 10:53:11;;;;;;;;;;;;;;;-147.11;100.00;61570.13;5028276;28;19917;-56
2022/07/02 10:55:36;;;;;;;;;;;;;;;-147.11;100.00;61570.13;5036666;28;19967;-55
2022/07/02 10:58:04;;;;;;;;;;;;;;;-147.11;100.00;61570.13;5036153;28;20328;-55
2022/07/02 11:00:29;;;;;;;;;;;;;;;-147.11;100.00;61570.13;5028792;28;19928;-55
2022/07/02 11:02:58;;;;;;;;;;;;;;;-147.11;100.00;61570.13;5025342;28;19917;-55
2022/07/02 11:05:23;;;;;;;;;;;;;;;-147.11;100.00;61570.13;5030258;28;19917;-55
2022/07/02 11:07:49;;;;;;;;;;;;;;;-147.11;100.00;61570.13;5029340;28;19941;-55
2022/07/02 11:10:14;;;;;;;;;;;;;;;-147.11;100.00;61570.13;5030065;28;19921;-55
2022/07/02 11:12:57;;;;;;;;;;;;;;;-147.11;100.00;61570.13;5033952;28;19999;-55
2022/07/02 11:15:32;;;;;;;;;;;;;;;-147.11;100.00;61570.13;5027836;28;19917;-57
2022/07/02 11:18:01;;;;;;;;;;;;;;;-147.11;100.00;61570.13;5030265;28;19921;-56
2022/07/02 11:20:27;;;;;;;;;;;;;;;-147.11;100.00;61570.13;5025676;28;20294;-56
2022/07/02 11:22:52;;;;;;;;;;;;;;;-147.11;100.00;61570.13;5031070;28;19913;-55
2022/07/02 11:25:18;;;;;;;;;;;;;;;-147.11;100.00;61570.13;5031938;28;19917;-58
2022/07/02 11:27:53;;;;;;;;;;;;;;;-147.11;100.00;61570.13;5031727;28;21157;-55
2022/07/02 11:30:23;;;;;;;;;;;;;;;-147.11;100.00;61570.13;5032446;28;19917;-56
2022/07/02 11:32:48;;;;;;;;;;;;;;;-147.11;100.00;61570.13;5027882;28;19920;-55
2022/07/02 11:35:16;;;;;;;;;;;;;;;-147.11;100.00;61570.13;5029955;28;20304;-55
2022/07/02 11:37:44;;;;;;;;;;;;;;;-147.11;100.00;61570.13;5027899;28;19918;-55
2022/07/02 11:40:19;;;;;;;;;;;;;;;-147.11;100.00;61570.13;5027986;28;19929;-55
2022/07/02 11:42:45;;;;;;;;;;;;;;;-147.11;100.00;61570.13;5031232;28;20505;-58
2022/07/02 11:45:10;;;;;;;;;;;;;;;-147.11;100.00;61570.13;5030358;28;20641;-55
2022/07/02 11:47:49;;;;;;;;;;;;;;;-147.11;100.00;61570.13;5034887;28;19970;-55
2022/07/02 11:50:14;;;;;;;;;;;;;;;-147.11;100.00;61570.13;5035962;28;19921;-56
2022/07/02 11:52:42;;;;;;;;;;;;;;;-147.11;100.00;61570.13;5028252;28;20315;-56
2022/07/02 11:55:15;;;;;;;;;;;;;;;-147.11;100.00;61570.13;5027491;28;19924;-56
2022/07/02 11:57:41;;;;;;;;;;;;;;;-147.11;100.00;61570.13;5031447;28;19954;-55
2022/07/02 12:00:06;;;;;;;;;;;;;;;-147.11;100.00;61570.13;5024747;28;19928;-55
2022/07/02 12:02:39;;;;;;;;;;;;;;;-147.11;100.00;61570.13;5027987;28;19967;-55
2022/07/02 12:05:24;;;;;;;;;;;;;;;-147.11;100.00;61570.13;5032854;28;20019;-55
2022/07/02 12:07:49;;;;;;;;;;;;;;;-147.11;100.00;61570.13;5026890;28;19932;-55
2022/07/02 12:10:15;;;;;;;;;;;;;;;-147.11;100.00;61570.13;5024684;28;19913;-55
2022/07/02 12:12:40;;;;;;;;;;;;;;;-147.11;100.00;61570.13;5024183;28;20376;-55
2022/07/02 12:15:06;;;;;;;;;;;;;;;-147.11;100.00;61570.13;5028856;28;19928;-55
2022/07/02 12:17:33;;;;;;;;;;;;;;;-147.11;100.00;61570.13;5027288;28;19921;-54